createdAt,value
2019-02-28T00:00:52.989Z,2.87
2019-02-28T00:03:57.958Z,2.83
2019-02-28T00:06:58.832Z,2.80
2019-02-28T00:10:00.714Z,2.75
2019-02-28T00:13:02.624Z,2.72
2019-02-28T00:16:04.606Z,2.65
2019-02-28T00:19:07.272Z,2.65
2019-02-28T00:22:11.357Z,2.65
2019-02-28T00:25:12.951Z,2.59
2019-02-28T00:28:14.898Z,2.64
2019-02-28T00:31:16.897Z,2.69
2019-02-28T00:34:18.804Z,2.73
2019-02-28T00:37:20.722Z,2.79
2019-02-28T00:40:22.610Z,2.84
2019-02-28T00:43:25.315Z,2.84
2019-02-28T00:46:27.974Z,2.83
2019-02-28T00:49:30.451Z,2.78
2019-02-28T00:52:35.511Z,2.80
2019-02-28T00:55:36.163Z,2.77
2019-02-28T00:58:38.062Z,2.73
2019-02-28T01:01:39.954Z,2.65
2019-02-28T01:04:41.852Z,2.61
2019-02-28T01:07:43.888Z,2.55
2019-02-28T01:10:46.130Z,2.49
2019-02-28T01:13:48.026Z,2.45
2019-02-28T01:16:50.218Z,2.42
2019-02-28T01:19:53.887Z,2.41
2019-02-28T01:22:58.568Z,2.39
2019-02-28T01:25:59.642Z,2.38
2019-02-28T01:29:02.668Z,2.36
2019-02-28T01:32:04.839Z,2.40
2019-02-28T01:35:07.677Z,2.42
2019-02-28T01:38:09.618Z,2.43
2019-02-28T01:41:11.886Z,2.44
2019-02-28T01:44:14.183Z,2.42
2019-02-28T01:47:19.873Z,2.44
2019-02-28T01:50:20.513Z,2.45
2019-02-28T01:53:22.399Z,2.42
2019-02-28T01:56:24.274Z,2.46
2019-02-28T01:59:26.158Z,2.54
2019-02-28T02:02:29.295Z,2.65
2019-02-28T02:05:31.178Z,2.71
2019-02-28T02:08:33.140Z,2.75
2019-02-28T02:11:35.039Z,2.72
2019-02-28T02:14:36.891Z,2.66
2019-02-28T02:17:38.792Z,2.59
2019-02-28T02:20:40.770Z,2.57
2019-02-28T02:23:42.710Z,2.49
2019-02-28T02:26:45.239Z,2.49
2019-02-28T02:29:47.857Z,2.47
2019-02-28T02:32:50.534Z,2.47
2019-02-28T02:35:52.407Z,2.44
2019-02-28T02:38:54.317Z,2.45
2019-02-28T02:41:56.194Z,2.52
2019-02-28T02:44:58.099Z,2.55
2019-02-28T02:48:00.061Z,2.59
2019-02-28T02:51:02.040Z,2.64
2019-02-28T02:54:03.945Z,2.71
2019-02-28T02:57:05.822Z,2.77
2019-02-28T03:00:13.683Z,2.79
2019-02-28T03:03:14.922Z,2.80
2019-02-28T03:06:16.817Z,2.79
2019-02-28T03:09:18.772Z,2.75
2019-02-28T03:12:20.657Z,2.64
2019-02-28T03:15:26.918Z,2.54
2019-02-28T03:18:26.343Z,2.43
2019-02-28T03:21:28.359Z,2.40
2019-02-28T03:24:31.267Z,2.42
2019-02-28T03:27:33.178Z,2.50
2019-02-28T03:30:35.140Z,2.54
2019-02-28T03:33:37.029Z,2.58
2019-02-28T03:36:38.927Z,2.59
2019-02-28T03:39:40.842Z,2.56
2019-02-28T03:42:42.818Z,2.58
2019-02-28T03:45:45.433Z,2.62
2019-02-28T03:48:47.317Z,2.63
2019-02-28T03:51:49.301Z,2.60
2019-02-28T03:54:51.191Z,2.55
2019-02-28T03:57:53.452Z,2.59
2019-02-28T04:00:55.417Z,2.59
2019-02-28T04:03:57.291Z,2.62
2019-02-28T04:06:59.150Z,2.60
2019-02-28T04:10:01.215Z,2.51
2019-02-28T04:13:03.077Z,2.41
2019-02-28T04:16:09.267Z,2.37
2019-02-28T04:19:08.776Z,2.36
2019-02-28T04:22:10.770Z,2.38
2019-02-28T04:25:12.644Z,2.41
2019-02-28T04:28:18.670Z,2.44
2019-02-28T04:31:20.203Z,2.43
2019-02-28T04:34:22.371Z,2.46
2019-02-28T04:37:24.275Z,2.48
2019-02-28T04:40:27.000Z,2.56
2019-02-28T04:43:29.694Z,2.69
2019-02-28T04:46:32.564Z,2.77
2019-02-28T04:49:34.905Z,2.82
2019-02-28T04:52:36.913Z,2.97
2019-02-28T04:55:38.838Z,3.16
2019-02-28T04:58:42.012Z,3.35
2019-02-28T05:01:45.209Z,3.51
2019-02-28T05:04:47.781Z,3.60
2019-02-28T05:07:50.523Z,3.64
2019-02-28T05:10:55.631Z,3.75
2019-02-28T05:13:56.483Z,3.81
2019-02-28T05:16:58.434Z,3.88
2019-02-28T05:20:00.319Z,3.91
2019-02-28T05:23:02.930Z,3.95
2019-02-28T05:26:06.193Z,4.01
2019-02-28T05:29:08.111Z,4.03
2019-02-28T05:32:09.998Z,4.07
2019-02-28T05:35:11.917Z,4.10
2019-02-28T05:38:13.832Z,4.14
2019-02-28T05:41:16.036Z,4.18
2019-02-28T05:44:18.312Z,4.19
2019-02-28T05:47:20.264Z,4.22
2019-02-28T05:50:22.172Z,4.32
2019-02-28T05:53:24.153Z,4.49
2019-02-28T05:56:26.108Z,4.85
2019-02-28T05:59:29.810Z,5.36
2019-02-28T06:02:31.695Z,5.72
2019-02-28T06:05:33.677Z,5.99
2019-02-28T06:08:39.050Z,6.42
2019-02-28T06:11:39.584Z,6.93
2019-02-28T06:14:41.471Z,7.41
2019-02-28T06:17:43.413Z,7.89
2019-02-28T06:20:51.154Z,8.33
2019-02-28T06:23:49.333Z,8.69
2019-02-28T06:26:51.240Z,9.00
2019-02-28T06:29:53.151Z,9.31
2019-02-28T06:32:58.082Z,9.62
2019-02-28T06:35:58.893Z,9.94
2019-02-28T06:39:00.831Z,10.16
2019-02-28T06:42:02.963Z,10.22
2019-02-28T06:45:11.115Z,10.09
2019-02-28T06:48:13.186Z,9.88
2019-02-28T06:51:16.773Z,9.90
2019-02-28T06:54:19.036Z,10.47
2019-02-28T06:57:20.953Z,11.05
2019-02-28T07:00:22.898Z,11.52
2019-02-28T07:03:24.958Z,11.88
2019-02-28T07:06:26.992Z,12.22
2019-02-28T07:09:30.439Z,12.51
2019-02-28T07:12:33.159Z,12.59
2019-02-28T07:15:35.304Z,12.77
2019-02-28T07:18:37.306Z,12.91
2019-02-28T07:21:42.851Z,13.08
2019-02-28T07:24:43.133Z,13.23
2019-02-28T07:27:45.048Z,13.36
2019-02-28T07:30:50.302Z,13.51
2019-02-28T07:33:51.437Z,13.63
2019-02-28T07:36:53.562Z,13.93
2019-02-28T07:39:55.617Z,14.27
2019-02-28T07:42:58.540Z,14.59
2019-02-28T07:46:00.500Z,14.89
2019-02-28T07:49:03.826Z,15.13
2019-02-28T07:52:05.728Z,15.43
2019-02-28T07:55:11.355Z,15.70
2019-02-28T07:58:13.301Z,15.85
2019-02-28T08:01:15.469Z,15.91
2019-02-28T08:04:18.568Z,15.94
2019-02-28T08:07:21.283Z,15.99
2019-02-28T08:10:26.151Z,16.10
2019-02-28T08:13:28.222Z,16.10
2019-02-28T08:16:30.727Z,16.24
2019-02-28T08:19:34.710Z,16.23
2019-02-28T08:22:36.703Z,16.24
2019-02-28T08:25:39.615Z,16.19
2019-02-28T08:28:42.601Z,16.26
2019-02-28T08:31:44.560Z,16.18
2019-02-28T08:34:46.924Z,16.03
2019-02-28T08:37:55.380Z,15.89
2019-02-28T08:40:53.063Z,15.66
2019-02-28T08:43:55.022Z,15.48
2019-02-28T08:46:56.914Z,15.39
2019-02-28T08:49:58.839Z,15.36
2019-02-28T08:53:02.543Z,15.38
2019-02-28T08:56:04.515Z,15.23
2019-02-28T08:59:11.770Z,15.17
2019-02-28T09:02:10.674Z,14.98
2019-02-28T09:05:13.685Z,14.99
2019-02-28T09:08:15.717Z,14.99
2019-02-28T09:11:20.778Z,14.86
2019-02-28T09:14:21.724Z,14.77
2019-02-28T09:17:23.657Z,14.73
2019-02-28T09:20:25.712Z,14.69
2019-02-28T09:23:27.849Z,14.69
2019-02-28T09:26:31.944Z,14.74
2019-02-28T09:29:34.142Z,14.78
2019-02-28T09:32:36.033Z,14.63
2019-02-28T09:35:37.932Z,14.62
2019-02-28T09:38:42.345Z,14.69
2019-02-28T09:41:44.015Z,14.68
2019-02-28T09:44:45.930Z,14.67
2019-02-28T09:47:47.913Z,14.65
2019-02-28T09:50:49.963Z,14.68
2019-02-28T09:53:51.906Z,14.70
2019-02-28T09:56:53.924Z,14.71
2019-02-28T09:59:55.909Z,14.67
2019-02-28T10:02:57.793Z,14.62
2019-02-28T10:05:59.696Z,14.52
2019-02-28T10:09:01.633Z,14.47
2019-02-28T10:12:07.846Z,14.48
2019-02-28T10:15:22.227Z,14.55
2019-02-28T10:18:24.153Z,14.57
2019-02-28T10:21:26.060Z,14.58
2019-02-28T10:24:28.378Z,14.51
2019-02-28T10:27:30.647Z,14.52
2019-02-28T10:30:32.817Z,14.61
2019-02-28T10:33:34.807Z,14.69
2019-02-28T10:36:36.875Z,14.65
2019-02-28T10:39:40.250Z,14.55
2019-02-28T10:42:42.691Z,14.53
2019-02-28T10:45:46.100Z,14.51
2019-02-28T10:48:50.975Z,14.50
2019-02-28T10:51:52.459Z,14.51
2019-02-28T10:54:54.537Z,14.63
2019-02-28T10:57:56.577Z,14.64
2019-02-28T11:00:58.439Z,14.67
2019-02-28T11:04:00.488Z,14.67
2019-02-28T11:07:03.126Z,14.71
2019-02-28T11:10:08.000Z,14.72
2019-02-28T11:13:12.341Z,14.64
2019-02-28T11:16:14.484Z,14.53
2019-02-28T11:19:18.560Z,14.61
2019-02-28T11:22:20.284Z,14.64
2019-02-28T11:25:25.364Z,14.57
2019-02-28T11:28:28.304Z,14.55
2019-02-28T11:31:31.251Z,14.55
2019-02-28T11:34:33.212Z,14.53
2019-02-28T11:37:35.424Z,14.53
2019-02-28T11:40:40.481Z,14.57
2019-02-28T11:43:41.384Z,14.62
2019-02-28T11:46:44.593Z,14.69
2019-02-28T11:49:46.496Z,14.68
2019-02-28T11:52:48.595Z,14.69
2019-02-28T11:55:53.297Z,14.68
2019-02-28T11:58:54.583Z,14.67
2019-02-28T12:01:56.500Z,14.72
2019-02-28T12:04:58.482Z,14.70
2019-02-28T12:08:00.469Z,14.68
2019-02-28T12:11:02.902Z,14.71
2019-02-28T12:14:06.330Z,14.71
2019-02-28T12:17:08.660Z,14.77
2019-02-28T12:20:12.595Z,14.80
2019-02-28T12:23:14.557Z,14.77
2019-02-28T12:26:17.819Z,14.72
2019-02-28T12:29:20.350Z,14.72
2019-02-28T12:32:25.365Z,14.75
2019-02-28T12:35:27.387Z,14.70
2019-02-28T12:38:29.316Z,14.67
2019-02-28T12:41:31.271Z,14.63
2019-02-28T12:44:33.234Z,14.65
2019-02-28T12:47:35.208Z,14.67
2019-02-28T12:50:37.168Z,14.70
2019-02-28T12:53:39.107Z,14.74
2019-02-28T12:56:41.100Z,14.74
2019-02-28T12:59:45.832Z,14.76
2019-02-28T13:02:47.205Z,14.75
2019-02-28T13:05:49.595Z,14.77
2019-02-28T13:08:53.454Z,14.79
2019-02-28T13:11:55.624Z,14.76
2019-02-28T13:14:57.727Z,14.73
2019-02-28T13:18:07.312Z,14.68
2019-02-28T13:21:10.708Z,14.56
2019-02-28T13:24:10.708Z,14.53
2019-02-28T13:27:13.202Z,14.49
2019-02-28T13:30:23.339Z,14.47
2019-02-28T13:33:26.627Z,14.45
2019-02-28T13:36:28.681Z,14.32
2019-02-28T13:39:31.603Z,14.30
2019-02-28T13:42:36.350Z,14.30
2019-02-28T13:45:38.314Z,14.35
2019-02-28T13:48:40.260Z,14.35
2019-02-28T13:51:42.751Z,14.37
2019-02-28T13:54:44.956Z,14.41
2019-02-28T13:57:47.153Z,14.38
2019-02-28T14:00:50.269Z,14.38
2019-02-28T14:03:52.170Z,14.35
2019-02-28T14:06:55.788Z,14.31
2019-02-28T14:09:59.154Z,14.29
2019-02-28T14:13:01.257Z,14.31
2019-02-28T14:16:03.513Z,14.32
2019-02-28T14:19:05.515Z,14.27
2019-02-28T14:22:08.645Z,14.22
2019-02-28T14:25:11.825Z,14.20
2019-02-28T14:28:13.965Z,14.16
2019-02-28T14:31:16.080Z,14.11
2019-02-28T14:34:20.845Z,14.10
2019-02-28T14:37:22.966Z,14.06
2019-02-28T14:40:25.284Z,13.97
2019-02-28T14:43:28.495Z,13.84
2019-02-28T14:46:30.454Z,13.76
2019-02-28T14:49:33.241Z,13.66
2019-02-28T14:52:39.415Z,13.57
2019-02-28T14:55:40.783Z,13.46
2019-02-28T14:58:42.702Z,13.37
2019-02-28T15:01:44.792Z,13.25
2019-02-28T15:04:46.784Z,13.14
2019-02-28T15:07:50.029Z,13.03
2019-02-28T15:10:53.258Z,12.97
2019-02-28T15:13:55.747Z,12.88
2019-02-28T15:17:02.031Z,12.80
2019-02-28T15:20:04.941Z,12.79
2019-02-28T15:23:07.097Z,12.77
2019-02-28T15:26:09.190Z,12.76
2019-02-28T15:29:11.341Z,12.72
2019-02-28T15:32:14.231Z,12.66
2019-02-28T15:35:19.646Z,12.65
2019-02-28T15:38:21.765Z,12.60
2019-02-28T15:41:23.721Z,12.52
2019-02-28T15:44:29.129Z,12.51
2019-02-28T15:47:30.447Z,12.47
2019-02-28T15:50:32.586Z,12.43
2019-02-28T15:53:34.831Z,12.36
2019-02-28T15:56:38.716Z,12.32
2019-02-28T15:59:40.824Z,12.27
2019-02-28T16:02:43.119Z,12.24
2019-02-28T16:05:46.212Z,12.19
2019-02-28T16:08:49.015Z,12.16
2019-02-28T16:11:51.086Z,12.11
2019-02-28T16:14:55.278Z,12.05
2019-02-28T16:17:57.552Z,12.03
2019-02-28T16:20:59.710Z,11.95
2019-02-28T16:24:02.054Z,11.89
2019-02-28T16:27:06.618Z,11.83
2019-02-28T16:30:12.061Z,11.77
2019-02-28T16:33:14.522Z,11.73
2019-02-28T16:36:18.884Z,11.64
2019-02-28T16:39:20.836Z,11.58
2019-02-28T16:42:24.796Z,11.49
2019-02-28T16:45:32.259Z,11.45
2019-02-28T16:48:36.493Z,11.36
2019-02-28T16:51:38.667Z,11.28
2019-02-28T16:54:40.675Z,11.21
2019-02-28T16:57:43.608Z,11.17
2019-02-28T17:00:46.525Z,11.10
2019-02-28T17:03:50.574Z,11.05
2019-02-28T17:06:52.539Z,11.00
2019-02-28T17:09:56.223Z,10.96
2019-02-28T17:13:15.375Z,10.87
2019-02-28T17:16:19.522Z,10.82
2019-02-28T17:19:21.457Z,10.77
2019-02-28T17:22:26.909Z,10.74
2019-02-28T17:25:29.421Z,10.68
2019-02-28T17:28:35.756Z,10.64
2019-02-28T17:31:40.684Z,10.58
2019-02-28T17:34:42.939Z,10.51
2019-02-28T17:37:46.160Z,10.49
2019-02-28T17:40:48.083Z,10.43
2019-02-28T17:44:24.234Z,10.42
2019-02-28T17:47:38.566Z,10.39
2019-02-28T17:50:44.072Z,10.28
2019-02-28T17:54:01.139Z,10.20
2019-02-28T17:57:21.241Z,10.11
2019-02-28T18:00:41.102Z,10.05
2019-02-28T18:03:50.254Z,9.99
2019-02-28T18:07:32.825Z,9.89
2019-02-28T18:10:39.658Z,9.84
2019-02-28T18:13:52.190Z,9.76
2019-02-28T18:17:17.364Z,9.73
2019-02-28T18:20:32.231Z,9.71
2019-02-28T18:24:04.185Z,9.65
2019-02-28T18:27:26.753Z,9.62
2019-02-28T18:31:09.368Z,9.58
2019-02-28T18:34:12.561Z,9.50
2019-02-28T18:37:14.766Z,9.48
2019-02-28T18:40:17.694Z,9.43
2019-02-28T18:43:19.689Z,9.40
2019-02-28T18:46:23.309Z,9.33
2019-02-28T18:49:26.585Z,9.30
2019-02-28T18:52:29.238Z,9.15
2019-02-28T18:55:35.115Z,9.05
2019-02-28T18:58:37.129Z,8.97
2019-02-28T19:01:39.102Z,8.89
2019-02-28T19:04:41.089Z,8.78
2019-02-28T19:07:48.287Z,8.70
2019-02-28T19:10:52.625Z,8.68
2019-02-28T19:13:54.532Z,8.63
2019-02-28T19:16:58.024Z,8.53
2019-02-28T19:19:59.966Z,8.42
2019-02-28T19:23:02.154Z,8.29
2019-02-28T19:26:04.316Z,8.18
2019-02-28T19:29:06.320Z,8.08
2019-02-28T19:32:09.648Z,8.00
2019-02-28T19:35:11.579Z,7.97
2019-02-28T19:38:15.600Z,7.96
2019-02-28T19:41:17.841Z,7.97
2019-02-28T19:44:21.361Z,7.96
2019-02-28T19:47:23.276Z,7.95
2019-02-28T19:50:28.396Z,7.93
2019-02-28T19:53:32.112Z,7.92
2019-02-28T19:56:34.056Z,7.88
2019-02-28T19:59:38.205Z,7.87
2019-02-28T20:02:40.129Z,7.89
2019-02-28T20:05:44.305Z,7.91
2019-02-28T20:08:48.254Z,7.92
2019-02-28T20:11:54.284Z,7.88
2019-02-28T20:14:56.278Z,7.89
2019-02-28T20:18:01.607Z,7.89
2019-02-28T20:21:05.747Z,7.92
2019-02-28T20:24:09.476Z,7.92
2019-02-28T20:27:12.215Z,7.94
2019-02-28T20:30:17.075Z,7.94
2019-02-28T20:33:19.355Z,7.92
2019-02-28T20:36:22.660Z,7.93
2019-02-28T20:39:26.075Z,7.89
2019-02-28T20:42:28.394Z,7.88
2019-02-28T20:45:33.857Z,7.94
2019-02-28T20:48:35.798Z,8.00
2019-02-28T20:51:40.146Z,8.03
2019-02-28T20:54:42.354Z,7.98
2019-02-28T20:57:44.399Z,7.96
2019-02-28T21:00:46.488Z,7.98
2019-02-28T21:03:48.441Z,8.06
2019-02-28T21:06:50.467Z,8.08
2019-02-28T21:09:53.664Z,8.13
2019-02-28T21:12:55.603Z,8.16
2019-02-28T21:15:57.841Z,8.16
2019-02-28T21:18:59.792Z,8.14
2019-02-28T21:22:01.680Z,8.10
2019-02-28T21:25:07.151Z,8.09
2019-02-28T21:28:10.391Z,7.99
2019-02-28T21:31:13.151Z,7.84
2019-02-28T21:34:15.036Z,7.71
2019-02-28T21:37:20.310Z,7.64
2019-02-28T21:40:23.804Z,7.57
2019-02-28T21:43:25.723Z,7.57
2019-02-28T21:46:27.747Z,7.54
2019-02-28T21:49:29.592Z,7.57
2019-02-28T21:52:31.551Z,7.61
2019-02-28T21:55:35.678Z,7.59
2019-02-28T21:58:38.286Z,7.54
2019-02-28T22:01:40.606Z,7.53
2019-02-28T22:04:43.572Z,7.47
2019-02-28T22:07:45.418Z,7.48
2019-02-28T22:10:47.509Z,7.46
2019-02-28T22:13:49.376Z,7.47
2019-02-28T22:16:51.318Z,7.51
2019-02-28T22:19:53.380Z,7.54
2019-02-28T22:22:55.287Z,7.60
2019-02-28T22:25:57.163Z,7.66
2019-02-28T22:28:59.131Z,7.64
2019-02-28T22:32:05.965Z,7.65
2019-02-28T22:35:09.818Z,7.68
2019-02-28T22:38:11.747Z,7.73
2019-02-28T22:41:14.847Z,7.72
2019-02-28T22:44:16.796Z,7.64
2019-02-28T22:47:18.731Z,7.63
2019-02-28T22:50:20.681Z,7.63
2019-02-28T22:53:22.529Z,7.66
2019-02-28T22:56:24.478Z,7.67
2019-02-28T22:59:26.400Z,7.68
2019-02-28T23:02:29.015Z,7.71
2019-02-28T23:05:30.942Z,7.65
2019-02-28T23:08:32.875Z,7.67
2019-02-28T23:11:34.858Z,7.71
2019-02-28T23:14:36.752Z,7.77
2019-02-28T23:17:38.732Z,7.77
2019-02-28T23:20:40.639Z,7.68
2019-02-28T23:23:42.615Z,7.68
2019-02-28T23:27:07.822Z,7.74
2019-02-28T23:30:22.462Z,7.77
2019-02-28T23:33:24.352Z,7.73
2019-02-28T23:36:26.310Z,7.70
2019-02-28T23:39:28.267Z,7.77
2019-02-28T23:42:30.352Z,7.73
2019-02-28T23:45:32.242Z,7.72
2019-02-28T23:48:34.190Z,7.72
2019-02-28T23:51:36.143Z,7.68
2019-02-28T23:54:38.128Z,7.71
2019-02-28T23:57:40.070Z,7.69
